createdAt,value
2018-12-14T00:02:29.943Z,101304.77
2018-12-14T00:05:18.138Z,101300.83
2018-12-14T00:08:05.633Z,101304.31
2018-12-14T00:10:52.727Z,101301.25
2018-12-14T00:13:40.079Z,101305.61
2018-12-14T00:16:27.964Z,101302.57
2018-12-14T00:19:15.890Z,101298.67
2018-12-14T00:22:05.234Z,101313.47
2018-12-14T00:24:52.631Z,101311.69
2018-12-14T00:27:40.797Z,101312.45
2018-12-14T00:30:28.654Z,101312.10
2018-12-14T00:33:21.490Z,101316.45
2018-12-14T00:36:18.112Z,101311.70
2018-12-14T00:39:05.793Z,101314.31
2018-12-14T00:41:52.684Z,101322.59
2018-12-14T00:44:40.429Z,101318.22
2018-12-14T00:47:27.669Z,101319.98
2018-12-14T00:50:22.454Z,101322.14
2018-12-14T00:53:12.845Z,101322.13
2018-12-14T00:56:04.310Z,101326.94
2018-12-14T00:58:51.959Z,101334.34
2018-12-14T01:01:41.271Z,101333.02
2018-12-14T01:04:28.838Z,101329.13
2018-12-14T01:07:16.906Z,101341.73
2018-12-14T01:10:07.970Z,101343.02
2018-12-14T01:12:55.604Z,101346.06
2018-12-14T01:15:42.675Z,101336.47
2018-12-14T01:18:29.687Z,101335.92
2018-12-14T01:21:16.475Z,101339.03
2018-12-14T01:24:04.531Z,101347.75
2018-12-14T01:26:52.691Z,101343.42
2018-12-14T01:29:41.074Z,101339.94
2018-12-14T01:32:28.573Z,101346.02
2018-12-14T01:35:15.389Z,101341.20
2018-12-14T01:38:02.672Z,101342.48
2018-12-14T01:40:50.031Z,101343.80
2018-12-14T01:43:36.905Z,101344.27
2018-12-14T01:46:23.654Z,101329.92
2018-12-14T01:49:11.243Z,101329.81
2018-12-14T01:51:58.706Z,101330.62
2018-12-14T01:54:45.922Z,101325.00
2018-12-14T01:57:33.377Z,101331.16
2018-12-14T02:00:20.867Z,101330.75
2018-12-14T02:03:08.472Z,101335.09
2018-12-14T02:05:55.805Z,101332.09
2018-12-14T02:08:43.636Z,101329.06
2018-12-14T02:11:30.794Z,101327.75
2018-12-14T02:14:18.212Z,101332.08
2018-12-14T02:17:05.473Z,101334.74
2018-12-14T02:19:52.980Z,101333.89
2018-12-14T02:22:40.204Z,101331.20
2018-12-14T02:25:27.121Z,101327.19
2018-12-14T02:28:16.193Z,101332.86
2018-12-14T02:31:04.245Z,101334.19
2018-12-14T02:33:52.253Z,101328.56
2018-12-14T02:36:39.798Z,101319.46
2018-12-14T02:39:26.846Z,101329.04
2018-12-14T02:42:19.268Z,101320.70
2018-12-14T02:45:16.597Z,101325.00
2018-12-14T02:48:04.655Z,101324.63
2018-12-14T02:54:06.976Z,101331.24
2018-12-14T02:56:54.726Z,101324.73
2018-12-14T02:59:45.433Z,101324.76
2018-12-14T03:02:34.616Z,101325.63
2018-12-14T03:05:22.225Z,101323.02
2018-12-14T03:08:09.841Z,101319.54
2018-12-14T03:10:57.900Z,101316.52
2018-12-14T03:13:47.365Z,101315.63
2018-12-14T03:16:35.058Z,101315.97
2018-12-14T03:19:26.430Z,101311.64
2018-12-14T03:22:17.210Z,101309.95
2018-12-14T03:25:04.612Z,101309.98
2018-12-14T03:27:51.821Z,101313.05
2018-12-14T03:30:39.672Z,101320.45
2018-12-14T03:33:29.404Z,101322.19
2018-12-14T03:36:27.707Z,101321.33
2018-12-14T03:39:14.282Z,101322.55
2018-12-14T03:42:04.580Z,101317.84
2018-12-14T03:44:51.752Z,101322.63
2018-12-14T03:47:38.663Z,101322.63
2018-12-14T03:50:25.681Z,101325.69
2018-12-14T03:53:13.147Z,101329.16
2018-12-14T03:56:00.596Z,101330.45
2018-12-14T03:58:47.489Z,101323.51
2018-12-14T04:01:35.066Z,101332.18
2018-12-14T04:04:22.095Z,101323.94
2018-12-14T04:07:09.909Z,101321.77
2018-12-14T04:10:00.301Z,101322.64
2018-12-14T04:12:47.828Z,101327.02
2018-12-14T04:15:36.148Z,101333.55
2018-12-14T04:18:23.593Z,101340.52
2018-12-14T04:21:14.258Z,101341.83
2018-12-14T04:24:01.257Z,101337.93
2018-12-14T04:26:51.278Z,101349.22
2018-12-14T04:29:40.147Z,101347.92
2018-12-14T04:32:26.782Z,101348.35
2018-12-14T04:35:13.592Z,101351.39
2018-12-14T04:38:01.230Z,101350.52
2018-12-14T04:40:53.719Z,101350.64
2018-12-14T04:43:41.133Z,101344.81
2018-12-14T04:46:27.970Z,101344.42
2018-12-14T04:49:16.721Z,101344.72
2018-12-14T04:52:04.238Z,101347.80
2018-12-14T04:54:54.088Z,101348.25
2018-12-14T04:57:42.525Z,101351.32
2018-12-14T05:00:29.873Z,101346.98
2018-12-14T05:03:21.257Z,101351.33
2018-12-14T05:06:10.256Z,101352.64
2018-12-14T05:09:00.764Z,101351.38
2018-12-14T05:11:48.369Z,101355.59
2018-12-14T05:14:35.395Z,101346.48
2018-12-14T05:17:22.365Z,101346.94
2018-12-14T05:20:09.856Z,101349.15
2018-12-14T05:23:06.152Z,101353.09
2018-12-14T05:25:53.783Z,101348.76
2018-12-14T05:28:41.004Z,101356.16
2018-12-14T05:31:28.707Z,101350.50
2018-12-14T05:34:16.863Z,101351.81
2018-12-14T05:37:03.783Z,101353.98
2018-12-14T05:39:53.422Z,101349.64
2018-12-14T05:43:02.374Z,101352.66
2018-12-14T05:45:43.166Z,101351.38
2018-12-14T05:48:32.022Z,101362.70
2018-12-14T05:51:19.214Z,101360.95
2018-12-14T05:54:06.221Z,101363.13
2018-12-14T05:56:53.603Z,101360.54
2018-12-14T05:59:56.790Z,101356.23
2018-12-14T06:02:43.779Z,101356.94
2018-12-14T06:05:31.060Z,101359.14
2018-12-14T06:08:18.812Z,101356.55
2018-12-14T06:11:06.222Z,101359.16
2018-12-14T06:14:05.075Z,101360.48
2018-12-14T06:16:53.447Z,101364.41
2018-12-14T06:19:40.710Z,101358.34
2018-12-14T06:22:28.012Z,101361.81
2018-12-14T06:25:15.983Z,101372.24
2018-12-14T06:28:05.364Z,101367.03
2018-12-14T06:30:54.997Z,101373.98
2018-12-14T06:33:45.991Z,101374.86
2018-12-14T06:36:33.206Z,101376.16
2018-12-14T06:39:20.093Z,101372.67
2018-12-14T06:42:08.392Z,101378.33
2018-12-14T06:44:56.155Z,101381.84
2018-12-14T06:47:45.427Z,101374.72
2018-12-14T06:50:34.106Z,101376.94
2018-12-14T06:53:21.731Z,101376.13
2018-12-14T06:56:09.762Z,101386.11
2018-12-14T06:58:57.041Z,101380.47
2018-12-14T07:01:44.261Z,101382.66
2018-12-14T07:04:32.384Z,101390.05
2018-12-14T07:07:19.795Z,101390.93
2018-12-14T07:10:07.881Z,101390.06
2018-12-14T07:12:56.908Z,101399.20
2018-12-14T07:15:44.164Z,101403.55
2018-12-14T07:18:31.502Z,101405.29
2018-12-14T07:21:20.028Z,101409.63
2018-12-14T07:27:13.752Z,101404.84
2018-12-14T07:30:01.401Z,101406.28
2018-12-14T07:32:50.123Z,101409.10
2018-12-14T07:35:41.982Z,101408.70
2018-12-14T07:38:25.990Z,101411.76
2018-12-14T07:41:13.835Z,101416.12
2018-12-14T07:44:01.465Z,101418.72
2018-12-14T07:46:48.934Z,101420.45
2018-12-14T07:49:37.731Z,101420.90
2018-12-14T07:52:26.717Z,101431.02
2018-12-14T07:55:14.464Z,101426.03
2018-12-14T07:58:01.613Z,101435.19
2018-12-14T08:03:54.399Z,101442.61
2018-12-14T08:06:41.005Z,101444.36
2018-12-14T08:09:28.636Z,101443.48
2018-12-14T08:12:19.079Z,101443.91
2018-12-14T08:15:13.731Z,101456.52
2018-12-14T08:21:09.300Z,101456.51
2018-12-14T08:23:56.661Z,101461.34
2018-12-14T08:26:43.839Z,101464.64
2018-12-14T08:29:31.287Z,101468.61
2018-12-14T08:32:20.422Z,101467.75
2018-12-14T08:35:10.514Z,101468.61
2018-12-14T08:37:57.114Z,101477.75
2018-12-14T08:40:43.956Z,101476.87
2018-12-14T08:43:30.934Z,101480.77
2018-12-14T08:46:18.181Z,101481.63
2018-12-14T08:49:05.004Z,101483.80
2018-12-14T08:51:52.297Z,101492.95
2018-12-14T08:54:39.427Z,101495.10
2018-12-14T08:57:26.461Z,101497.31
2018-12-14T09:00:13.597Z,101498.61
2018-12-14T09:03:01.960Z,101505.58
2018-12-14T09:05:49.379Z,101501.65
2018-12-14T09:08:36.270Z,101500.34
2018-12-14T09:11:24.436Z,101506.85
2018-12-14T09:14:12.120Z,101510.31
2018-12-14T09:16:59.029Z,101509.88
2018-12-14T09:19:46.192Z,101511.61
2018-12-14T09:22:34.044Z,101514.23
2018-12-14T09:28:27.172Z,101507.23
2018-12-14T09:31:18.174Z,101512.89
2018-12-14T09:34:08.344Z,101512.44
2018-12-14T09:36:55.185Z,101517.66
2018-12-14T09:39:42.953Z,101511.56
2018-12-14T09:42:29.890Z,101515.89
2018-12-14T09:45:16.751Z,101518.95
2018-12-14T09:48:04.459Z,101520.13
2018-12-14T09:51:00.783Z,101529.23
2018-12-14T09:53:49.197Z,101520.73
2018-12-14T09:56:37.070Z,101523.42
2018-12-14T09:59:24.078Z,101523.05
2018-12-14T10:02:11.219Z,101529.66
2018-12-14T10:04:58.576Z,101527.97
2018-12-14T10:07:46.993Z,101525.86
2018-12-14T10:16:48.534Z,101524.98
2018-12-14T10:19:35.881Z,101525.86
2018-12-14T10:22:25.591Z,101526.70
2018-12-14T10:25:12.828Z,101525.86
2018-12-14T10:27:59.989Z,101518.41
2018-12-14T10:30:47.004Z,101522.31
2018-12-14T10:33:34.329Z,101520.97
2018-12-14T10:36:21.719Z,101522.64
2018-12-14T10:39:08.809Z,101520.46
2018-12-14T10:41:56.144Z,101518.30
2018-12-14T10:44:43.924Z,101526.09
2018-12-14T10:47:30.783Z,101513.08
2018-12-14T10:50:18.007Z,101512.30
2018-12-14T10:53:05.490Z,101516.28
2018-12-14T10:55:55.600Z,101514.13
2018-12-14T10:58:42.891Z,101506.74
2018-12-14T11:01:50.829Z,101503.69
2018-12-14T11:04:38.701Z,101506.72
2018-12-14T11:07:27.087Z,101505.38
2018-12-14T11:10:14.344Z,101504.89
2018-12-14T11:13:01.990Z,101503.99
2018-12-14T11:15:53.899Z,101500.97
2018-12-14T11:18:41.133Z,101497.93
2018-12-14T11:24:37.372Z,101500.94
2018-12-14T11:27:28.219Z,101507.97
2018-12-14T11:30:15.270Z,101510.99
2018-12-14T11:33:02.386Z,101508.36
2018-12-14T11:35:58.232Z,101510.06
2018-12-14T11:38:51.888Z,101513.80
2018-12-14T11:41:38.845Z,101516.88
2018-12-14T11:44:27.046Z,101522.19
2018-12-14T11:47:18.300Z,101522.17
2018-12-14T11:50:20.101Z,101520.43
2018-12-14T11:53:08.140Z,101518.95
2018-12-14T11:55:55.468Z,101524.50
2018-12-14T11:58:42.965Z,101523.73
2018-12-14T12:01:32.278Z,101519.91
2018-12-14T12:04:19.177Z,101518.45
2018-12-14T12:07:06.112Z,101517.89
2018-12-14T12:09:59.885Z,101520.64
2018-12-14T12:12:57.189Z,101512.68
2018-12-14T12:15:44.786Z,101507.28
2018-12-14T12:18:31.771Z,101515.22
2018-12-14T12:21:19.259Z,101510.83
2018-12-14T12:27:13.545Z,101503.41
2018-12-14T12:30:01.074Z,101512.36
2018-12-14T12:32:48.401Z,101511.58
2018-12-14T12:35:35.369Z,101515.13
2018-12-14T12:38:24.256Z,101513.89
2018-12-14T12:41:13.847Z,101511.73
2018-12-14T12:44:00.904Z,101512.23
2018-12-14T12:46:47.968Z,101514.84
2018-12-14T12:49:35.494Z,101511.89
2018-12-14T12:52:22.291Z,101510.12
2018-12-14T12:55:10.467Z,101507.98
2018-12-14T12:58:05.280Z,101513.66
2018-12-14T13:03:59.033Z,101506.33
2018-12-14T13:06:46.507Z,101504.14
2018-12-14T13:09:33.837Z,101504.21
2018-12-14T13:12:21.218Z,101510.92
2018-12-14T13:15:08.397Z,101511.97
2018-12-14T13:17:55.189Z,101514.19
2018-12-14T13:20:42.136Z,101519.90
2018-12-14T13:23:29.572Z,101520.05
2018-12-14T13:26:16.523Z,101524.09
2018-12-14T13:29:03.811Z,101525.98
2018-12-14T13:31:50.984Z,101527.89
2018-12-14T13:34:38.708Z,101527.16
2018-12-14T13:37:25.725Z,101525.05
2018-12-14T13:40:14.193Z,101526.86
2018-12-14T13:43:01.342Z,101519.62
2018-12-14T13:45:48.655Z,101520.69
2018-12-14T13:48:36.743Z,101520.79
2018-12-14T13:51:24.052Z,101526.49
2018-12-14T13:54:11.122Z,101530.03
2018-12-14T13:57:02.600Z,101522.69
2018-12-14T13:59:49.789Z,101527.48
2018-12-14T14:02:37.032Z,101525.77
2018-12-14T14:05:26.095Z,101523.61
2018-12-14T14:08:13.111Z,101521.90
2018-12-14T14:11:00.525Z,101526.56
2018-12-14T14:16:54.940Z,101531.05
2018-12-14T14:19:42.508Z,101534.55
2018-12-14T14:22:38.257Z,101535.88
2018-12-14T14:25:25.765Z,101542.86
2018-12-14T14:28:13.468Z,101538.08
2018-12-14T14:31:01.191Z,101545.98
2018-12-14T14:33:54.606Z,101549.05
2018-12-14T14:36:47.067Z,101550.43
2018-12-14T14:39:34.920Z,101551.61
2018-12-14T14:42:24.269Z,101557.34
2018-12-14T14:45:13.543Z,101555.04
2018-12-14T14:48:01.054Z,101558.59
2018-12-14T14:50:49.029Z,101562.97
2018-12-14T14:53:37.566Z,101564.73
2018-12-14T14:56:25.253Z,101566.92
2018-12-14T14:59:12.601Z,101563.11
2018-12-14T15:02:03.987Z,101569.91
2018-12-14T15:04:54.124Z,101576.50
2018-12-14T15:07:49.461Z,101578.25
2018-12-14T15:10:40.851Z,101576.95
2018-12-14T15:13:28.132Z,101583.06
2018-12-14T15:16:17.691Z,101585.23
2018-12-14T15:19:04.991Z,101587.18
2018-12-14T15:21:54.964Z,101594.31
2018-12-14T15:24:41.914Z,101591.30
2018-12-14T15:27:29.906Z,101601.08
2018-12-14T15:30:16.633Z,101603.03
2018-12-14T15:33:04.099Z,101598.81
2018-12-14T15:35:52.126Z,101606.49
2018-12-14T15:38:40.474Z,101606.98
2018-12-14T15:41:28.525Z,101608.71
2018-12-14T15:47:26.057Z,101613.48
2018-12-14T15:50:12.954Z,101617.42
2018-12-14T15:53:02.933Z,101612.21
2018-12-14T15:55:50.222Z,101617.02
2018-12-14T15:58:37.478Z,101613.96
2018-12-14T16:01:24.690Z,101617.45
2018-12-14T16:07:17.845Z,101625.48
2018-12-14T16:10:05.515Z,101624.38
2018-12-14T16:12:52.991Z,101627.02
2018-12-14T16:15:40.447Z,101628.75
2018-12-14T16:18:37.589Z,101627.47
2018-12-14T16:21:27.012Z,101627.45
2018-12-14T16:24:14.855Z,101626.16
2018-12-14T16:27:02.208Z,101628.33
2018-12-14T16:29:50.594Z,101636.59
2018-12-14T16:32:37.785Z,101640.94
2018-12-14T16:35:25.655Z,101639.63
2018-12-14T16:38:13.896Z,101637.02
2018-12-14T16:41:05.809Z,101639.20
2018-12-14T16:43:53.307Z,101638.77
2018-12-14T16:46:45.652Z,101640.05
2018-12-14T16:49:34.587Z,101642.69
2018-12-14T16:52:22.226Z,101645.73
2018-12-14T16:55:12.208Z,101638.77
2018-12-14T16:57:59.360Z,101640.95
2018-12-14T17:00:46.825Z,101645.73
2018-12-14T17:03:34.673Z,101644.78
2018-12-14T17:06:21.934Z,101639.63
2018-12-14T17:09:08.894Z,101642.57
2018-12-14T17:11:55.880Z,101643.97
2018-12-14T17:14:43.379Z,101638.33
2018-12-14T17:17:32.039Z,101634.84
2018-12-14T17:20:19.126Z,101637.47
2018-12-14T17:23:06.980Z,101642.27
2018-12-14T17:25:54.701Z,101639.20
2018-12-14T17:28:45.364Z,101643.98
2018-12-14T17:31:32.558Z,101646.17
2018-12-14T17:34:19.809Z,101651.82
2018-12-14T17:37:07.109Z,101643.97
2018-12-14T17:39:54.899Z,101644.84
2018-12-14T17:42:41.778Z,101641.80
2018-12-14T17:45:28.941Z,101644.41
2018-12-14T17:48:18.746Z,101651.80
2018-12-14T17:51:06.142Z,101655.28
2018-12-14T17:53:56.024Z,101657.46
2018-12-14T17:56:44.366Z,101650.07
2018-12-14T17:59:31.709Z,101648.33
2018-12-14T18:02:22.254Z,101646.14
2018-12-14T18:05:09.525Z,101643.53
2018-12-14T18:07:56.820Z,101642.22
2018-12-14T18:10:44.655Z,101640.92
2018-12-14T18:13:32.231Z,101645.27
2018-12-14T18:16:19.616Z,101646.14
2018-12-14T18:19:08.151Z,101649.63
2018-12-14T18:21:57.826Z,101654.41
2018-12-14T18:24:45.214Z,101650.05
2018-12-14T18:27:33.194Z,101656.14
2018-12-14T18:30:24.992Z,101654.41
2018-12-14T18:33:14.286Z,101664.41
2018-12-14T18:42:31.996Z,101668.32
2018-12-14T18:45:21.373Z,101677.46
2018-12-14T18:48:09.180Z,101672.69
2018-12-14T18:54:07.385Z,101676.16
2018-12-14T18:57:06.163Z,101680.95
2018-12-14T18:59:53.258Z,101676.57
2018-12-14T19:02:43.233Z,101682.22
2018-12-14T19:05:32.882Z,101693.09
2018-12-14T19:08:21.456Z,101696.13
2018-12-14T19:11:08.988Z,101697.00
2018-12-14T19:13:55.968Z,101698.75
2018-12-14T19:16:45.302Z,101698.74
2018-12-14T19:19:34.517Z,101699.18
2018-12-14T19:22:26.375Z,101706.57
2018-12-14T19:25:14.034Z,101716.57
2018-12-14T19:28:01.766Z,101712.72
2018-12-14T19:30:49.472Z,101715.32
2018-12-14T19:33:38.578Z,101713.56
2018-12-14T19:36:29.111Z,101722.70
2018-12-14T19:39:16.517Z,101725.32
2018-12-14T19:42:06.689Z,101719.67
2018-12-14T19:44:56.405Z,101729.26
2018-12-14T19:47:45.106Z,101730.12
2018-12-14T19:50:32.938Z,101738.82
2018-12-14T19:53:22.280Z,101730.96
2018-12-14T19:56:09.807Z,101738.36
2018-12-14T19:58:59.297Z,101739.67
2018-12-14T20:01:55.089Z,101738.80
2018-12-14T20:04:48.278Z,101741.38
2018-12-14T20:07:36.897Z,101741.38
2018-12-14T20:10:24.145Z,101746.16
2018-12-14T20:13:12.789Z,101748.77
2018-12-14T20:16:01.569Z,101753.13
2018-12-14T20:19:02.840Z,101750.95
2018-12-14T20:21:50.030Z,101749.65
2018-12-14T20:24:37.133Z,101748.78
2018-12-14T20:27:25.036Z,101752.69
2018-12-14T20:30:14.923Z,101754.43
2018-12-14T20:33:03.147Z,101755.73
2018-12-14T20:35:54.387Z,101754.08
2018-12-14T20:38:43.696Z,101761.00
2018-12-14T20:41:31.378Z,101764.45
2018-12-14T20:44:18.322Z,101758.34
2018-12-14T20:47:05.673Z,101761.82
2018-12-14T20:49:55.579Z,101764.44
2018-12-14T20:52:45.339Z,101765.30
2018-12-14T20:55:32.045Z,101762.66
2018-12-14T20:58:19.592Z,101765.70
2018-12-14T21:01:07.250Z,101761.80
2018-12-14T21:03:54.767Z,101760.45
2018-12-14T21:06:41.609Z,101759.59
2018-12-14T21:09:28.711Z,101755.83
2018-12-14T21:12:16.197Z,101756.63
2018-12-14T21:15:13.764Z,101757.47
2018-12-14T21:18:01.560Z,101762.26
2018-12-14T21:20:48.425Z,101765.27
2018-12-14T21:23:37.580Z,101763.53
2018-12-14T21:26:27.047Z,101759.31
2018-12-14T21:29:16.147Z,101757.92
2018-12-14T21:32:03.079Z,101749.23
2018-12-14T21:34:51.074Z,101753.13
2018-12-14T21:37:38.521Z,101747.47
2018-12-14T21:40:25.840Z,101750.52
2018-12-14T21:43:14.586Z,101754.00
2018-12-14T21:46:01.974Z,101751.79
2018-12-14T21:48:50.538Z,101756.14
2018-12-14T21:51:37.660Z,101753.09
2018-12-14T21:54:25.265Z,101758.44
2018-12-14T21:57:15.548Z,101755.78
2018-12-14T22:00:04.704Z,101756.63
2018-12-14T22:02:53.089Z,101759.67
2018-12-14T22:05:40.277Z,101756.20
2018-12-14T22:08:30.033Z,101758.80
2018-12-14T22:11:16.937Z,101757.91
2018-12-14T22:14:04.351Z,101750.16
2018-12-14T22:16:51.858Z,101750.55
2018-12-14T22:19:41.205Z,101749.28
2018-12-14T22:22:28.728Z,101747.52
2018-12-14T22:25:16.310Z,101754.04
2018-12-14T22:28:03.719Z,101755.38
2018-12-14T22:30:51.107Z,101761.88
2018-12-14T22:33:38.290Z,101762.33
2018-12-14T22:36:25.965Z,101759.73
2018-12-14T22:39:15.931Z,101759.30
2018-12-14T22:42:03.507Z,101756.67
2018-12-14T22:44:51.125Z,101758.39
2018-12-14T22:47:38.413Z,101763.15
2018-12-14T22:50:25.932Z,101767.07
2018-12-14T22:53:15.776Z,101768.77
2018-12-14T22:56:02.942Z,101766.60
2018-12-14T22:58:52.095Z,101764.87
2018-12-14T23:01:39.394Z,101767.91
2018-12-14T23:04:26.873Z,101763.13
2018-12-14T23:07:14.090Z,101760.52
2018-12-14T23:10:01.841Z,101767.45
2018-12-14T23:12:50.965Z,101765.70
2018-12-14T23:15:39.370Z,101774.83
2018-12-14T23:18:26.919Z,101774.40
2018-12-14T23:24:22.946Z,101778.31
2018-12-14T23:27:10.886Z,101777.01
2018-12-14T23:29:58.807Z,101771.36
2018-12-14T23:32:46.084Z,101771.36
2018-12-14T23:35:35.295Z,101767.01
2018-12-14T23:38:24.696Z,101765.23
2018-12-14T23:41:12.600Z,101763.94
2018-12-14T23:44:00.844Z,101768.72
2018-12-14T23:46:48.778Z,101766.97
2018-12-14T23:49:39.589Z,101768.28
2018-12-14T23:52:23.753Z,101766.97
2018-12-14T23:55:10.491Z,101760.45
2018-12-14T23:57:57.794Z,101768.71
